Time;durP1;ratioP1;P1;durP2;ratioP2;P2;SDS_P1;SDS_P2;PMS_P1;PMS_P2;Temp;Humidity;BMP_temperature;BMP_pressure;BME280_temperature;BME280_humidity;BME280_pressure;Samples;Min_cycle;Max_cycle;Signal;HPM_P1;HPM_P2
2022/04/11 00:02:17;;;;;;;7.93;3.63;;;;;;;2.85;65.81;100563.46;1448084;89;22658;-82
2022/04/11 00:04:44;;;;;;;9.10;2.83;;;;;;;2.84;66.33;100564.84;1421732;89;21393;-81
2022/04/11 00:07:11;;;;;;;5.73;2.67;;;;;;;2.77;66.78;100564.39;1423350;89;22669;-80
2022/04/11 00:09:38;;;;;;;9.10;3.70;;;;;;;2.78;66.57;100567.84;1442355;88;22065;-79
2022/04/11 00:12:06;;;;;;;7.40;3.57;;;;;;;2.75;66.51;100563.64;1429182;90;21676;-79
2022/04/11 00:14:33;;;;;;;9.47;3.63;;;;;;;2.77;66.49;100562.25;1423802;90;21781;-80
2022/04/11 00:17:00;;;;;;;5.27;2.87;;;;;;;2.80;66.04;100555.53;1422224;91;21594;-79
2022/04/11 00:19:27;;;;;;;6.20;2.97;;;;;;;2.86;65.98;100561.69;1428212;89;21654;-79
2022/04/11 00:21:54;;;;;;;6.33;2.93;;;;;;;2.88;66.06;100559.83;1441368;89;21689;-79
2022/04/11 00:24:21;;;;;;;7.30;2.80;;;;;;;2.90;65.62;100561.85;1429756;89;21490;-79
2022/04/11 00:26:48;;;;;;;6.13;3.60;;;;;;;2.87;66.64;100564.66;1411226;89;21781;-79
2022/04/11 00:29:15;;;;;;;12.03;4.23;;;;;;;2.77;67.10;100570.09;1451917;89;21794;-80
2022/04/11 00:31:42;;;;;;;9.57;3.97;;;;;;;2.74;66.81;100569.81;1425669;89;23029;-79
2022/04/11 00:34:09;;;;;;;8.37;3.50;;;;;;;2.75;66.91;100564.11;1448396;89;21613;-79
2022/04/11 00:36:36;;;;;;;5.97;3.40;;;;;;;2.77;66.65;100563.56;1441734;88;21637;-79
2022/04/11 00:39:03;;;;;;;5.27;3.07;;;;;;;2.78;67.37;100562.62;1430649;89;21683;-80
2022/04/11 00:41:30;;;;;;;5.77;3.37;;;;;;;2.74;67.57;100559.36;1450883;89;22532;-80
2022/04/11 00:43:57;;;;;;;10.97;3.77;;;;;;;2.76;66.84;100562.70;1454583;88;21641;-80
2022/04/11 00:46:23;;;;;;;10.93;3.73;;;;;;;2.78;66.79;100563.45;1424528;89;21654;-80
2022/04/11 00:48:50;;;;;;;6.37;3.20;;;;;;;2.78;66.83;100560.00;1435219;89;21501;-80
2022/04/11 00:51:22;;;;;;;4.87;3.00;;;;;;;2.77;65.89;100566.17;1448906;88;21719;-80
2022/04/11 00:53:52;;;;;;;8.97;4.27;;;;;;;2.71;65.79;100568.23;1438789;90;21517;-80
2022/04/11 00:56:20;;;;;;;8.17;4.00;;;;;;;2.65;66.42;100571.22;1422326;89;22750;-80
2022/04/11 00:58:48;;;;;;;8.80;4.00;;;;;;;2.56;67.33;100574.39;1421200;89;21684;-80
2022/04/11 01:01:16;;;;;;;9.33;4.83;;;;;;;2.53;66.60;100582.39;1420216;89;21711;-79
2022/04/11 01:03:44;;;;;;;7.43;4.00;;;;;;;2.49;67.26;100578.30;1440017;88;22366;-79
2022/04/11 01:06:11;;;;;;;8.40;3.90;;;;;;;2.44;67.87;100575.11;1456274;89;21673;-80
2022/04/11 01:08:38;;;;;;;6.83;4.13;;;;;;;2.44;67.59;100575.11;1452041;89;21628;-80
2022/04/11 01:11:06;;;;;;;5.57;3.80;;;;;;;2.47;68.13;100580.14;1420360;88;21649;-80
2022/04/11 01:13:34;;;;;;;7.03;4.10;;;;;;;2.46;68.04;100585.01;1419232;89;22594;-80
2022/04/11 01:16:05;;;;;;;7.70;3.83;;;;;;;2.40;68.53;100589.30;1420775;89;22563;-80
2022/04/11 01:18:35;;;;;;;7.40;3.80;;;;;;;2.41;68.38;100580.52;1434708;89;21686;-80
2022/04/11 01:21:05;;;;;;;5.50;3.33;;;;;;;2.41;69.02;100588.36;1440927;89;23579;-80
2022/04/11 01:23:32;;;;;;;9.07;3.50;;;;;;;2.40;68.67;100587.52;1449859;88;21331;-80
2022/04/11 01:25:59;;;;;;;7.20;3.30;;;;;;;2.41;68.54;100585.74;1420375;89;21741;-80
2022/04/11 01:28:25;;;;;;;7.13;3.63;;;;;;;2.38;68.45;100583.31;1434264;89;21525;-80
2022/04/11 01:30:55;;;;;;;8.03;4.07;;;;;;;2.34;69.17;100585.75;1416928;89;21557;-80
2022/04/11 01:33:29;;;;;;;6.70;3.30;;;;;;;2.33;68.45;100586.22;1426714;89;21666;-80
2022/04/11 01:35:56;;;;;;;6.93;4.17;;;;;;;2.29;69.03;100583.39;1442378;89;21671;-82
2022/04/11 01:38:23;;;;;;;6.50;3.87;;;;;;;2.28;68.48;100587.42;1447022;89;21655;-82
2022/04/11 01:40:55;;;;;;;8.97;4.60;;;;;;;2.24;68.51;100592.83;1459552;89;21788;-82
2022/04/11 01:43:24;;;;;;;7.67;4.23;;;;;;;2.21;68.71;100596.89;1458944;89;21816;-82
2022/04/11 01:45:52;;;;;;;7.40;4.00;;;;;;;2.20;68.91;100596.53;1457159;89;21735;-81
2022/04/11 01:48:19;;;;;;;7.77;4.40;;;;;;;2.20;69.22;100592.61;1435002;91;21539;-81
2022/04/11 01:50:46;;;;;;;6.67;4.10;;;;;;;2.14;69.84;100595.59;1424391;91;21561;-81
2022/04/11 01:53:19;;;;;;;8.53;5.27;;;;;;;2.15;69.21;100595.95;1427103;89;23200;-81
2022/04/11 01:55:47;;;;;;;7.13;4.07;;;;;;;2.18;69.35;100602.77;1440495;89;21607;-81
2022/04/11 01:58:15;;;;;;;11.40;6.10;;;;;;;2.19;69.46;100610.53;1466000;89;22618;-80
2022/04/11 02:00:43;;;;;;;8.03;4.20;;;;;;;2.17;69.37;100607.63;1461229;89;21565;-80
2022/04/11 02:03:11;;;;;;;9.27;4.63;;;;;;;2.17;69.94;100611.08;1458732;89;22732;-81
2022/04/11 02:05:40;;;;;;;9.23;4.40;;;;;;;2.15;69.46;100610.31;1462936;89;21595;-81
2022/04/11 02:08:10;;;;;;;7.70;4.87;;;;;;;2.18;69.59;100615.83;1455008;89;21556;-81
2022/04/11 02:10:38;;;;;;;9.27;4.97;;;;;;;2.16;69.53;100609.87;1463940;89;21532;-81
2022/04/11 02:13:06;;;;;;;12.57;5.13;;;;;;;2.11;70.07;100610.13;1461718;89;21627;-81
2022/04/11 02:15:34;;;;;;;14.23;5.60;;;;;;;2.09;70.28;100615.90;1435694;89;22569;-81
2022/04/11 02:18:02;;;;;;;7.70;3.87;;;;;;;2.10;69.83;100621.52;1432066;89;21659;-82
2022/04/11 02:20:29;;;;;;;8.13;3.80;;;;;;;2.09;69.95;100622.42;1432405;89;21692;-82
2022/04/11 02:22:59;;;;;;;9.03;4.57;;;;;;;2.10;69.56;100619.34;1450701;88;22074;-81
2022/04/11 02:25:30;;;;;;;11.53;4.13;;;;;;;2.14;69.43;100630.84;1451794;89;21622;-82
2022/04/11 02:27:58;;;;;;;9.03;4.97;;;;;;;2.20;69.31;100629.64;1430236;89;22581;-81
2022/04/11 02:30:26;;;;;;;7.57;4.47;;;;;;;2.25;69.11;100631.53;1432544;89;21426;-81
2022/04/11 02:32:55;;;;;;;15.93;5.30;;;;;;;2.26;69.19;100630.12;1439040;90;21656;-81
2022/04/11 02:35:23;;;;;;;9.37;4.73;;;;;;;2.24;69.33;100638.97;1437798;89;22641;-81
2022/04/11 02:37:53;;;;;;;7.33;3.93;;;;;;;2.16;68.97;100640.74;1438271;89;21608;-81
2022/04/11 02:40:20;;;;;;;12.17;5.57;;;;;;;2.10;69.43;100638.92;1423432;89;23162;-81
2022/04/11 02:42:47;;;;;;;7.57;4.93;;;;;;;2.08;68.96;100638.20;1447233;89;21730;-81
2022/04/11 02:45:16;;;;;;;16.67;5.57;;;;;;;2.12;68.94;100648.36;1426104;89;21711;-81
2022/04/11 02:47:43;;;;;;;8.47;4.77;;;;;;;2.09;68.97;100649.84;1458585;89;22759;-81
2022/04/11 02:50:11;;;;;;;8.83;4.40;;;;;;;2.00;69.30;100644.68;1453647;89;21748;-81
2022/04/11 02:52:38;;;;;;;7.93;4.90;;;;;;;1.89;69.71;100661.88;1418419;89;21927;-81
2022/04/11 02:55:07;;;;;;;8.13;3.93;;;;;;;1.78;70.29;100663.34;1421083;91;21711;-81
2022/04/11 02:57:36;;;;;;;8.50;5.00;;;;;;;1.68;70.62;100663.45;1452494;89;21635;-81
2022/04/11 03:00:11;;;;;;;6.00;4.10;;;;;;;1.61;71.00;100666.02;1447202;89;21634;-81
2022/04/11 03:02:39;;;;;;;6.23;4.50;;;;;;;1.57;71.09;100673.64;1430302;89;21719;-82
2022/04/11 03:05:07;;;;;;;7.90;4.53;;;;;;;1.48;71.45;100678.90;1423913;89;21626;-82
2022/04/11 03:07:34;;;;;;;15.00;7.37;;;;;;;1.43;71.17;100674.86;1425700;89;21484;-81
2022/04/11 03:10:01;;;;;;;10.70;5.63;;;;;;;1.40;71.08;100677.63;1418030;89;21647;-80
2022/04/11 03:12:28;;;;;;;11.25;5.08;;;;;;;1.37;70.97;100683.02;1420449;89;22476;-81
2022/04/11 03:14:55;;;;;;;7.07;4.20;;;;;;;1.32;71.72;100683.25;1430293;89;21384;-81
2022/04/11 03:17:22;;;;;;;9.50;4.83;;;;;;;1.26;72.45;100687.03;1422286;90;21711;-81
2022/04/11 03:19:49;;;;;;;9.67;5.13;;;;;;;1.21;72.08;100686.45;1442449;89;21625;-81
2022/04/11 03:22:15;;;;;;;6.53;3.87;;;;;;;1.16;72.46;100687.62;1423420;89;22693;-84
2022/04/11 03:24:42;;;;;;;11.55;4.92;;;;;;;1.11;72.73;100689.16;1428098;91;21596;-85
2022/04/11 03:27:09;;;;;;;17.37;5.60;;;;;;;1.07;72.43;100694.16;1438719;89;21406;-85
2022/04/11 03:29:36;;;;;;;13.27;5.60;;;;;;;1.08;71.98;100695.83;1426378;89;22516;-81
2022/04/11 03:32:05;;;;;;;14.17;5.70;;;;;;;1.07;72.87;100696.77;1426940;89;22174;-81
2022/04/11 03:34:32;;;;;;;8.88;4.85;;;;;;;1.04;73.03;100702.14;1427683;89;21707;-81
2022/04/11 03:36:59;;;;;;;12.88;5.10;;;;;;;1.02;73.13;100702.20;1441120;89;22257;-82
2022/04/11 03:39:26;;;;;;;8.13;4.45;;;;;;;1.00;73.65;100700.59;1451842;89;21385;-82
2022/04/11 03:41:53;;;;;;;7.70;4.47;;;;;;;0.95;73.93;100699.98;1450861;89;21331;-81
2022/04/11 03:44:19;;;;;;;11.90;5.05;;;;;;;0.93;74.36;100702.69;1467531;89;21412;-82
2022/04/11 03:46:46;;;;;;;11.38;5.22;;;;;;;0.89;73.69;100709.83;1456665;89;21404;-81
2022/04/11 03:49:13;;;;;;;8.60;5.53;;;;;;;0.91;73.02;100707.13;1461824;89;21382;-82
2022/04/11 03:51:40;;;;;;;6.93;4.93;;;;;;;0.90;73.65;100705.45;1463120;89;21499;-81
2022/04/11 03:54:07;;;;;;;13.80;5.63;;;;;;;0.90;73.48;100711.50;1441208;89;21966;-81
2022/04/11 03:56:34;;;;;;;8.68;5.60;;;;;;;0.87;73.42;100711.66;1430720;89;22123;-82
2022/04/11 03:59:01;;;;;;;9.68;5.10;;;;;;;0.83;73.79;100710.12;1437350;89;23313;-82
2022/04/11 04:01:28;;;;;;;9.33;4.62;;;;;;;0.80;74.36;100715.48;1434784;89;22292;-83
2022/04/11 04:03:55;;;;;;;11.88;5.80;;;;;;;0.79;74.04;100715.12;1429880;89;21363;-83
2022/04/11 04:06:21;;;;;;;10.23;5.17;;;;;;;0.78;74.16;100718.66;1423237;91;21348;-83
2022/04/11 04:08:48;;;;;;;13.28;7.15;;;;;;;0.78;74.51;100717.35;1454429;89;21324;-82
2022/04/11 04:11:15;;;;;;;16.27;7.63;;;;;;;0.80;74.26;100714.19;1452922;88;21324;-82
2022/04/11 04:13:43;;;;;;;9.60;5.17;;;;;;;0.83;74.11;100710.12;1458814;89;21872;-82
2022/04/11 04:16:10;;;;;;;13.10;6.73;;;;;;;0.87;74.89;100721.25;1444528;89;22360;-82
2022/04/11 04:18:37;;;;;;;11.43;5.75;;;;;;;0.87;74.60;100719.48;1442095;89;22088;-82
2022/04/11 04:21:04;;;;;;;13.03;6.05;;;;;;;0.90;74.59;100722.39;1436301;89;21500;-82
2022/04/11 04:23:31;;;;;;;11.28;5.28;;;;;;;0.88;75.36;100721.16;1456990;89;21441;-81
2022/04/11 04:25:58;;;;;;;11.13;6.17;;;;;;;0.89;76.10;100728.51;1453058;89;22411;-81
2022/04/11 04:28:25;;;;;;;10.70;6.33;;;;;;;0.92;76.34;100735.33;1435966;89;21862;-85
2022/04/11 04:30:52;;;;;;;15.80;6.67;;;;;;;0.98;75.61;100733.70;1452933;89;22250;-82
2022/04/11 04:33:19;;;;;;;10.80;5.93;;;;;;;1.05;75.82;100737.70;1444168;89;22521;-82
2022/04/11 04:35:46;;;;;;;15.25;6.47;;;;;;;1.12;75.08;100739.05;1428580;91;22160;-83
2022/04/11 04:38:13;;;;;;;16.20;7.30;;;;;;;1.22;74.76;100742.88;1443126;89;21443;-83
2022/04/11 04:40:40;;;;;;;17.27;7.70;;;;;;;1.28;75.00;100740.41;1457844;89;22211;-83
2022/04/11 04:43:08;;;;;;;21.10;7.78;;;;;;;1.37;74.37;100746.91;1457430;89;21404;-82
2022/04/11 04:45:36;;;;;;;14.07;8.33;;;;;;;1.50;74.36;100755.78;1459979;89;21427;-81
2022/04/11 04:48:06;;;;;;;14.23;7.47;;;;;;;1.63;74.20;100755.48;1448673;89;21663;-81
2022/04/11 04:50:33;;;;;;;21.13;7.87;;;;;;;1.73;74.29;100758.00;1447807;89;21572;-81
2022/04/11 04:53:00;;;;;;;16.97;6.60;;;;;;;1.67;75.18;100759.64;1435422;89;22431;-80
2022/04/11 04:55:27;;;;;;;12.07;5.83;;;;;;;1.67;74.02;100767.47;1432052;89;21590;-80
2022/04/11 04:57:54;;;;;;;11.10;6.20;;;;;;;1.61;74.29;100770.38;1432634;89;21572;-80
2022/04/11 05:00:21;;;;;;;13.80;5.63;;;;;;;1.56;74.75;100771.94;1434521;89;21629;-80
2022/04/11 05:02:49;;;;;;;11.57;4.40;;;;;;;1.59;74.92;100777.46;1438255;89;21767;-79
2022/04/11 05:05:16;;;;;;;13.47;6.37;;;;;;;1.63;74.56;100778.97;1434029;91;22532;-80
2022/04/11 05:07:43;;;;;;;9.27;5.37;;;;;;;1.70;74.23;100779.51;1429701;89;21599;-79
2022/04/11 05:10:10;;;;;;;8.13;4.13;;;;;;;1.76;74.68;100785.23;1415973;91;21657;-80
2022/04/11 05:12:42;;;;;;;10.23;4.70;;;;;;;1.83;74.02;100792.26;1450516;89;21646;-80
2022/04/11 05:15:11;;;;;;;8.73;4.37;;;;;;;1.96;74.02;100791.98;1440013;90;22358;-79
2022/04/11 05:17:38;;;;;;;6.97;4.07;;;;;;;2.09;73.53;100789.53;1449650;89;22329;-79
2022/04/11 05:20:09;;;;;;;11.43;5.33;;;;;;;2.25;72.98;100796.91;1442735;89;21642;-94
2022/04/11 05:22:36;;;;;;;10.28;5.22;;;;;;;2.44;72.62;100795.39;1444424;89;21529;-85
2022/04/11 05:25:04;;;;;;;15.33;5.77;;;;;;;2.63;71.92;100802.20;1446929;84;21572;-92
2022/04/11 05:27:31;;;;;;;11.10;4.87;;;;;;;2.80;71.20;100798.63;1477028;87;22654;-88
2022/04/11 05:29:58;;;;;;;11.43;4.60;;;;;;;2.97;71.09;100795.88;1487252;86;21617;-86
2022/04/11 05:32:25;;;;;;;13.57;6.40;;;;;;;3.14;70.85;100797.03;1515212;86;21754;-85
2022/04/11 05:34:52;;;;;;;12.97;5.30;;;;;;;3.31;70.68;100799.95;1511321;86;21536;-87
2022/04/11 05:37:19;;;;;;;7.67;5.03;;;;;;;3.49;70.39;100802.39;1485980;86;21626;-87
2022/04/11 05:39:48;;;;;;;12.17;5.17;;;;;;;3.63;69.87;100796.33;1507138;86;21679;-87
2022/04/11 05:42:15;;;;;;;12.70;5.77;;;;;;;3.77;69.50;100797.16;1504294;86;21718;-91
2022/04/11 05:44:42;;;;;;;10.77;4.23;;;;;;;4.10;66.93;100798.59;1505872;86;21681;-88
2022/04/11 05:47:09;;;;;;;10.40;4.83;;;;;;;4.10;66.93;100798.59;1494425;86;21804;-88
2022/04/11 05:49:38;;;;;;;5.63;3.73;;;;;;;4.18;66.00;100803.35;1507913;86;21841;-88
2022/04/11 05:52:07;;;;;;;9.37;3.50;;;;;;;4.49;65.81;100807.00;1503230;86;22146;-86
2022/04/11 05:54:40;;;;;;;8.20;4.03;;;;;;;4.49;65.81;100807.00;1501071;86;22080;-88
2022/04/11 05:57:07;;;;;;;8.17;3.60;;;;;;;4.56;65.15;100797.42;1501436;86;22837;-86
2022/04/11 05:59:34;;;;;;;8.43;3.20;;;;;;;4.82;65.87;100809.66;1512461;86;21808;-88
2022/04/11 06:02:01;;;;;;;7.70;3.67;;;;;;;4.86;62.84;100801.11;1510248;86;22028;-88
2022/04/11 06:04:28;;;;;;;8.70;4.00;;;;;;;4.99;63.21;100765.26;1489604;86;22058;-86
2022/04/11 06:06:55;;;;;;;7.50;3.57;;;;;;;5.13;63.70;100788.78;1510215;86;22095;-87
2022/04/11 06:09:22;;;;;;;6.03;3.53;;;;;;;5.20;61.91;100795.75;1506149;86;23071;-88
2022/04/11 06:11:49;;;;;;;9.03;3.53;;;;;;;5.36;62.51;100802.96;1490938;86;22065;-88
2022/04/11 06:14:16;;;;;;;9.20;3.53;;;;;;;5.55;61.97;100804.31;1490813;86;22030;-86
2022/04/11 06:16:42;;;;;;;12.17;5.03;;;;;;;5.66;61.86;100797.36;1489857;86;22027;-86
2022/04/11 06:19:09;;;;;;;8.03;4.43;;;;;;;5.86;62.61;100800.39;1493974;86;23215;-87
2022/04/11 06:21:36;;;;;;;7.23;3.30;;;;;;;6.03;60.18;100803.17;1487484;87;21404;-86
2022/04/11 06:24:04;;;;;;;10.40;4.33;;;;;;;6.10;59.71;100800.48;1469817;87;21360;-87
2022/04/11 06:26:31;;;;;;;8.43;3.43;;;;;;;6.18;60.69;100810.43;1469939;88;22861;-89
2022/04/11 06:28:58;;;;;;;8.43;3.90;;;;;;;6.26;59.10;100812.87;1470478;88;22819;-89
2022/04/11 06:31:25;;;;;;;8.73;4.40;;;;;;;6.23;58.06;100809.63;1469894;88;22313;-88
2022/04/11 06:33:52;;;;;;;9.93;3.70;;;;;;;6.42;59.10;100818.36;1471245;88;21422;-90
2022/04/11 06:36:18;;;;;;;7.73;3.67;;;;;;;6.59;59.46;100808.77;1469827;88;22416;-87
2022/04/11 06:38:45;;;;;;;7.90;3.27;;;;;;;6.55;56.91;100810.75;1470307;88;21412;-86
2022/04/11 06:41:12;;;;;;;9.93;4.80;;;;;;;6.57;57.24;100813.28;1473712;88;22388;-89
2022/04/11 06:43:39;;;;;;;7.53;3.53;;;;;;;6.80;56.83;100818.66;1471061;88;21456;-89
2022/04/11 06:46:06;;;;;;;11.47;4.60;;;;;;;6.95;56.08;100820.96;1471011;88;21375;-87
2022/04/11 06:48:33;;;;;;;10.40;5.03;;;;;;;7.27;57.15;100810.28;1471368;88;22363;-87
2022/04/11 06:51:00;;;;;;;11.43;4.67;;;;;;;7.61;57.44;100808.05;1469710;88;21403;-91
2022/04/11 06:53:27;;;;;;;15.73;5.00;;;;;;;7.89;53.76;100809.85;1440868;89;21422;-88
2022/04/11 06:55:54;;;;;;;14.60;6.13;;;;;;;8.04;54.38;100809.11;1474337;88;23434;-88
2022/04/11 06:58:21;;;;;;;12.47;5.70;;;;;;;7.99;52.32;100810.78;1459099;88;21464;-86
2022/04/11 07:00:48;;;;;;;12.20;4.87;;;;;;;8.17;53.66;100814.23;1475032;88;23210;-86
2022/04/11 07:03:14;;;;;;;6.57;3.60;;;;;;;8.09;53.90;100814.38;1481807;88;21374;-86
2022/04/11 07:05:42;;;;;;;12.50;5.90;;;;;;;8.27;54.79;100817.34;1479013;87;21338;-86
2022/04/11 07:08:09;;;;;;;7.53;3.63;;;;;;;8.46;53.20;100815.42;1479570;88;21347;-88
2022/04/11 07:10:43;;;;;;;7.67;3.77;;;;;;;8.07;52.05;100819.41;1479304;88;21361;-88
2022/04/11 07:13:05;;;;;;;6.60;2.70;;;;;;;8.38;53.42;100824.39;1479584;88;21449;-89
2022/04/11 07:15:32;;;;;;;5.90;2.60;;;;;;;7.89;50.39;100832.25;1479467;87;21338;-88
2022/04/11 07:17:59;;;;;;;5.13;2.60;;;;;;;7.95;50.32;100837.03;1476773;88;23080;-87
2022/04/11 07:20:26;;;;;;;10.07;3.27;;;;;;;7.97;50.40;100837.77;1478920;87;21384;-89
2022/04/11 07:22:53;;;;;;;5.17;2.73;;;;;;;8.14;50.82;100837.27;1479827;87;22766;-89
2022/04/11 07:25:23;;;;;;;5.33;2.73;;;;;;;8.07;49.98;100837.87;1475730;87;21486;-91
2022/04/11 07:27:49;;;;;;;5.93;2.87;;;;;;;8.12;50.44;100845.77;1479995;88;21508;-89
2022/04/11 07:30:17;;;;;;;7.57;3.57;;;;;;;8.14;49.62;100848.27;1484404;87;21618;-86
2022/04/11 07:32:44;;;;;;;6.90;3.07;;;;;;;8.21;49.15;100846.00;1482402;87;21346;-88
2022/04/11 07:35:17;;;;;;;6.53;3.03;;;;;;;8.25;50.16;100848.25;1469374;88;21368;-86
2022/04/11 07:37:45;;;;;;;7.43;3.20;;;;;;;8.34;50.95;100850.19;1542007;87;22648;-85
2022/04/11 07:40:12;;;;;;;6.73;3.17;;;;;;;8.29;50.12;100842.28;1404549;88;21206;-85
2022/04/11 07:42:40;;;;;;;5.07;3.07;;;;;;;8.50;51.13;100839.25;1484494;87;21324;-86
2022/04/11 07:45:08;;;;;;;6.37;3.27;;;;;;;8.30;48.80;100843.95;1403873;87;22212;-87
2022/04/11 07:47:35;;;;;;;4.30;2.67;;;;;;;8.29;50.00;100842.28;1534634;88;21265;-86
2022/04/11 07:50:03;;;;;;;7.30;3.80;;;;;;;8.26;49.63;100838.09;1422634;87;21243;-88
2022/04/11 07:52:30;;;;;;;6.77;3.30;;;;;;;8.18;48.76;100840.98;1404370;88;22153;-87
2022/04/11 07:54:57;;;;;;;8.67;3.60;;;;;;;8.18;51.07;100846.25;1482270;87;21427;-85
2022/04/11 07:57:27;;;;;;;6.77;2.80;;;;;;;8.16;50.77;100848.16;1479845;87;22344;-86
2022/04/11 07:59:54;;;;;;;8.05;3.37;;;;;;;8.28;50.55;100844.05;1481502;88;21442;-86
2022/04/11 08:02:27;;;;;;;6.43;3.70;;;;;;;8.35;50.73;100851.02;1482734;88;21471;-88
2022/04/11 08:04:54;;;;;;;9.70;3.73;;;;;;;8.33;50.47;100845.02;1482081;88;21567;-82
2022/04/11 08:07:22;;;;;;;15.77;6.13;;;;;;;8.40;49.60;100842.30;1483198;87;21479;-83
2022/04/11 08:09:49;;;;;;;5.63;3.50;;;;;;;8.68;50.22;100840.04;1482951;87;21309;-85
2022/04/11 08:12:18;;;;;;;7.53;3.73;;;;;;;8.87;48.70;100840.21;1475656;87;22394;-84
2022/04/11 08:14:45;;;;;;;6.43;3.07;;;;;;;9.15;49.26;100833.94;1481432;88;22181;-85
2022/04/11 08:17:12;;;;;;;6.80;3.33;;;;;;;9.11;47.13;100845.73;1478300;87;21427;-84
2022/04/11 08:19:39;;;;;;;9.63;5.63;;;;;;;9.39;47.55;100840.30;1480264;87;22285;-84
2022/04/11 08:22:06;;;;;;;11.10;7.73;;;;;;;9.82;47.75;100840.59;1482100;87;21441;-85
2022/04/11 08:24:33;;;;;;;21.10;13.53;;;;;;;10.00;47.65;100842.12;1481421;88;21383;-85
2022/04/11 08:27:01;;;;;;;6.53;3.07;;;;;;;10.22;48.82;100843.25;1480463;87;21478;-85
2022/04/11 08:29:28;;;;;;;8.23;4.37;;;;;;;10.12;46.00;100842.36;1477200;87;21398;-84
2022/04/11 08:31:55;;;;;;;7.43;3.03;;;;;;;10.04;45.87;100846.16;1474885;88;21487;-84
2022/04/11 08:34:22;;;;;;;7.77;3.43;;;;;;;10.08;46.53;100847.09;1485458;87;21316;-85
2022/04/11 08:36:49;;;;;;;5.93;3.60;;;;;;;10.33;46.42;100847.63;1476577;87;22470;-85
2022/04/11 08:39:16;;;;;;;6.20;2.63;;;;;;;10.25;43.75;100845.62;1470777;88;21318;-85
2022/04/11 08:41:43;;;;;;;6.40;3.50;;;;;;;10.37;43.42;100839.27;1473012;88;22404;-85
2022/04/11 08:44:13;;;;;;;7.00;2.87;;;;;;;10.59;44.62;100837.37;1475075;88;21427;-85
2022/04/11 08:46:41;;;;;;;7.12;2.80;;;;;;;10.48;42.56;100846.26;1475444;88;21361;-84
2022/04/11 08:49:08;;;;;;;5.37;2.80;;;;;;;10.74;43.49;100846.56;1476819;88;21339;-84
2022/04/11 08:51:36;;;;;;;12.10;4.00;;;;;;;10.75;43.46;100846.91;1477989;88;21428;-85
2022/04/11 08:54:05;;;;;;;9.57;3.17;;;;;;;11.03;43.61;100836.47;1514094;88;21310;-85
2022/04/11 08:56:33;;;;;;;6.13;2.97;;;;;;;10.71;43.18;100837.58;1402694;88;21340;-84
2022/04/11 08:59:02;;;;;;;5.37;2.67;;;;;;;10.58;44.31;100841.80;1384559;89;21361;-85
2022/04/11 09:01:29;;;;;;;6.20;2.70;;;;;;;10.16;42.86;100839.82;1479797;87;22403;-85
2022/04/11 09:03:56;;;;;;;5.00;2.60;;;;;;;9.78;44.08;100840.03;1474922;87;21353;-86
2022/04/11 09:06:23;;;;;;;6.63;2.93;;;;;;;9.70;44.38;100834.08;1503412;88;21266;-85
2022/04/11 09:08:54;;;;;;;7.73;3.50;;;;;;;10.06;45.33;100829.69;1408801;87;22196;-84
2022/04/11 09:11:38;;;;;;;11.27;2.70;;;;;;;10.18;44.68;100835.21;1488090;87;21338;-84
2022/04/11 09:14:08;;;;;;;28.37;3.40;;;;;;;10.17;44.68;100828.26;1475954;87;23393;-86
2022/04/11 09:16:51;;;;;;;4.95;2.05;;;;;;;10.19;45.25;100836.08;1476887;88;21531;-85
2022/04/11 09:19:25;;;;;;;8.97;2.47;;;;;;;10.05;43.68;100829.34;1474711;88;22242;-82
2022/04/11 09:21:54;;;;;;;9.07;3.20;;;;;;;9.74;43.64;100829.36;1466696;88;21353;-87
2022/04/11 09:24:26;;;;;;;5.30;3.13;;;;;;;9.18;42.90;100831.91;1473166;88;21369;-87
2022/04/11 09:26:55;;;;;;;12.00;3.27;;;;;;;9.16;43.90;100827.72;1476966;88;22625;-84
2022/04/11 09:29:29;;;;;;;5.53;2.67;;;;;;;9.52;45.17;100826.87;1480012;88;21457;-85
2022/04/11 09:32:04;;;;;;;10.30;4.90;;;;;;;10.04;44.66;100824.55;1472891;88;22431;-84
2022/04/11 09:34:31;;;;;;;9.43;2.67;;;;;;;10.22;43.66;100826.05;1465404;84;22390;-94
2022/04/11 09:37:02;;;;;;;4.17;2.47;;;;;;;10.13;43.41;100821.58;1453316;88;21332;-93
2022/04/11 09:39:36;;;;;;;7.03;2.83;;;;;;;10.15;43.44;100824.91;1488647;88;21383;-93
2022/04/11 09:42:04;;;;;;;4.93;2.33;;;;;;;10.23;43.87;100828.20;1461361;88;21427;-91
2022/04/11 09:44:34;;;;;;;4.43;2.47;;;;;;;10.46;42.60;100823.55;1444303;84;21643;-89
2022/04/11 09:47:05;;;;;;;5.10;2.60;;;;;;;10.38;42.80;100817.12;1388540;89;22295;-89
2022/04/11 09:49:33;;;;;;;5.20;2.37;;;;;;;10.55;43.54;100819.58;1386890;89;21301;-90
2022/04/11 09:52:19;;;;;;;5.50;2.70;;;;;;;10.96;43.14;100816.33;1389998;89;22224;-89
2022/04/11 09:54:37;;;;;;;3.90;2.10;;;;;;;11.50;41.90;100815.31;1381317;89;21398;-86
2022/04/11 09:57:06;;;;;;;5.58;2.77;;;;;;;11.61;38.45;100808.51;1383977;89;22351;-82
2022/04/11 09:59:34;;;;;;;3.47;2.27;;;;;;;11.71;41.31;100808.00;1383982;89;21280;-82
2022/04/11 10:02:02;;;;;;;7.67;3.83;;;;;;;12.30;42.09;100806.39;1383229;89;21502;-82
2022/04/11 10:04:29;;;;;;;5.53;2.37;;;;;;;12.46;40.05;100807.91;1383340;89;21532;-82
2022/04/11 10:06:56;;;;;;;5.20;1.70;;;;;;;11.86;35.41;100811.53;1383178;89;21302;-83
2022/04/11 10:09:24;;;;;;;4.97;2.07;;;;;;;11.55;36.72;100809.59;1383416;89;21317;-82
2022/04/11 10:11:53;;;;;;;4.90;2.13;;;;;;;11.58;37.53;100812.78;1383279;89;21324;-83
2022/04/11 10:14:25;;;;;;;5.08;2.35;;;;;;;12.09;37.90;100806.17;1383008;89;21532;-82
2022/04/11 10:17:02;;;;;;;2.90;1.83;;;;;;;12.50;36.89;100821.20;1382798;89;22219;-83
2022/04/11 10:19:33;;;;;;;1.93;1.60;;;;;;;12.12;40.55;100831.58;1383004;89;22152;-82
2022/04/11 10:22:09;;;;;;;2.90;1.23;;;;;;;11.23;41.91;100843.41;1383095;89;21490;-82
2022/04/11 10:24:43;;;;;;;3.13;1.77;;;;;;;9.90;44.05;100836.32;1382285;89;21421;-82
2022/04/11 10:27:25;;;;;;;4.83;2.33;;;;;;;10.42;45.16;100842.01;1382722;89;21346;-82
2022/04/11 10:29:53;;;;;;;2.87;1.47;;;;;;;10.11;47.08;100847.31;1382871;89;21383;-82
2022/04/11 10:32:24;;;;;;;3.37;2.10;;;;;;;9.78;47.65;100847.97;1383249;89;22233;-84
2022/04/11 10:35:00;;;;;;;4.22;1.82;;;;;;;9.90;47.83;100846.06;1383352;89;21310;-85
2022/04/11 10:37:53;;;;;;;4.10;2.17;;;;;;;9.83;48.30;100845.73;1383747;89;21266;-84
2022/04/11 10:40:26;;;;;;;3.70;2.03;;;;;;;9.93;49.39;100843.98;1382401;89;21474;-85
2022/04/11 10:43:11;;;;;;;4.40;2.27;;;;;;;10.12;48.22;100839.23;1383291;89;21317;-86
2022/04/11 10:45:46;;;;;;;2.80;1.67;;;;;;;10.41;48.54;100837.17;1386501;89;21523;-85
2022/04/11 10:48:14;;;;;;;5.33;2.30;;;;;;;10.94;49.31;100832.84;1380887;88;21465;-84
2022/04/11 10:50:43;;;;;;;1.93;1.60;;;;;;;10.83;47.46;100832.98;1380859;89;21361;-85
2022/04/11 10:53:23;;;;;;;5.40;2.40;;;;;;;10.79;46.87;100825.81;1381131;89;21332;-85
2022/04/11 10:56:02;;;;;;;4.47;2.37;;;;;;;10.73;45.04;100832.99;1380096;88;21333;-85
2022/04/11 10:58:51;;;;;;;4.23;1.60;;;;;;;10.84;44.99;100824.88;1381319;89;21332;-88
2022/04/11 11:01:46;;;;;;;3.47;1.70;;;;;;;10.95;44.52;100821.27;1380500;89;22138;-85
2022/04/11 11:04:20;;;;;;;3.57;2.00;;;;;;;10.82;43.46;100821.56;1380094;89;21333;-84
2022/04/11 11:06:47;;;;;;;4.70;1.73;;;;;;;11.17;44.68;100823.28;1380414;89;21413;-85
2022/04/11 11:09:18;;;;;;;1.80;1.50;;;;;;;11.67;44.38;100818.53;1380433;89;21280;-83
2022/04/11 11:11:47;;;;;;;3.83;1.50;;;;;;;11.86;40.79;100816.83;1380414;89;21399;-84
2022/04/11 11:14:42;;;;;;;3.97;1.67;;;;;;;12.07;42.79;100813.44;1380814;89;21312;-84
2022/04/11 11:17:10;;;;;;;3.43;1.73;;;;;;;12.52;44.75;100817.91;1391646;89;21387;-84
2022/04/11 11:20:01;;;;;;;5.27;1.67;;;;;;;13.38;43.32;100808.02;1381779;89;21406;-82
2022/04/11 11:22:29;;;;;;;;;;;;;;;13.26;34.84;100810.58;1380417;89;21473;-83
2022/04/11 11:25:17;;;;;;;4.50;1.83;;;;;;;12.75;36.30;100809.00;1365839;90;20739;-83
2022/04/11 11:27:45;;;;;;;8.67;1.60;;;;;;;12.56;38.89;100813.96;1380457;88;21360;-83
2022/04/11 11:30:14;;;;;;;2.77;1.53;;;;;;;12.95;38.07;100812.33;1366356;90;21323;-83
2022/04/11 11:32:42;;;;;;;2.70;1.67;;;;;;;13.06;36.64;100809.44;1360690;90;21318;-83
2022/04/11 11:35:09;;;;;;;9.00;2.00;;;;;;;12.90;36.80;100802.66;1360920;90;21437;-83
2022/04/11 11:37:37;;;;;;;2.40;1.53;;;;;;;12.47;37.72;100812.22;1361388;91;21311;-84